sensor_id;sensor_type;location;lat;lon;timestamp;temperature;humidity
326;DHT22;150;52.352;14.058;2023-11-21T04:57:28;7.10;48.50
326;DHT22;150;52.352;14.058;2023-11-21T05:00:20;7.20;48.70
326;DHT22;150;52.352;14.058;2023-11-21T05:02:56;7.20;48.10
326;DHT22;150;52.352;14.058;2023-11-21T05:05:50;7.20;48.60
326;DHT22;150;52.352;14.058;2023-11-21T05:08:29;6.80;48.80
326;DHT22;150;52.352;14.058;2023-11-21T05:11:12;6.90;50.00
326;DHT22;150;52.352;14.058;2023-11-21T05:13:55;6.90;50.00
326;DHT22;150;52.352;14.058;2023-11-21T05:16:27;6.90;49.60
326;DHT22;150;52.352;14.058;2023-11-21T05:18:56;7.00;49.60
326;DHT22;150;52.352;14.058;2023-11-21T05:21:25;7.00;49.10
326;DHT22;150;52.352;14.058;2023-11-21T05:24:01;7.10;49.80
326;DHT22;150;52.352;14.058;2023-11-21T05:26:27;7.20;49.20
326;DHT22;150;52.352;14.058;2023-11-21T05:28:56;7.30;48.10
326;DHT22;150;52.352;14.058;2023-11-21T05:31:23;7.20;47.90
326;DHT22;150;52.352;14.058;2023-11-21T05:33:57;7.30;48.80
326;DHT22;150;52.352;14.058;2023-11-21T05:36:36;7.20;47.70
326;DHT22;150;52.352;14.058;2023-11-21T05:39:13;7.20;48.00
326;DHT22;150;52.352;14.058;2023-11-21T05:42:04;7.20;47.90
326;DHT22;150;52.352;14.058;2023-11-21T05:44:41;7.20;47.20
326;DHT22;150;52.352;14.058;2023-11-21T05:47:21;7.20;47.10
326;DHT22;150;52.352;14.058;2023-11-21T05:49:50;6.90;48.40
326;DHT22;150;52.352;14.058;2023-11-21T05:56:23;6.90;49.40
326;DHT22;150;52.352;14.058;2023-11-21T05:59:12;7.00;49.50
326;DHT22;150;52.352;14.058;2023-11-21T06:01:58;6.80;48.90
326;DHT22;150;52.352;14.058;2023-11-21T06:05:03;6.80;50.20
326;DHT22;150;52.352;14.058;2023-11-21T06:07:39;6.80;49.70
326;DHT22;150;52.352;14.058;2023-11-21T06:10:08;6.80;49.70
326;DHT22;150;52.352;14.058;2023-11-21T06:12:52;6.80;49.00
326;DHT22;150;52.352;14.058;2023-11-21T06:15:32;6.80;48.80
326;DHT22;150;52.352;14.058;2023-11-21T06:25:31;6.50;48.90
326;DHT22;150;52.352;14.058;2023-11-21T06:28:42;6.60;49.30
326;DHT22;150;52.352;14.058;2023-11-21T06:31:17;6.80;48.90
326;DHT22;150;52.352;14.058;2023-11-21T06:33:47;6.70;47.20
326;DHT22;150;52.352;14.058;2023-11-21T06:36:42;6.50;46.30
326;DHT22;150;52.352;14.058;2023-11-21T06:39:56;6.40;47.10
326;DHT22;150;52.352;14.058;2023-11-21T06:42:46;6.40;47.20
326;DHT22;150;52.352;14.058;2023-11-21T06:45:44;6.30;47.30
326;DHT22;150;52.352;14.058;2023-11-21T06:51:32;6.30;47.50
326;DHT22;150;52.352;14.058;2023-11-21T06:54:10;6.30;47.50
326;DHT22;150;52.352;14.058;2023-11-21T06:56:50;6.20;47.70
326;DHT22;150;52.352;14.058;2023-11-21T06:59:32;6.30;48.30
326;DHT22;150;52.352;14.058;2023-11-21T07:02:10;6.20;47.20
326;DHT22;150;52.352;14.058;2023-11-21T07:04:48;6.00;48.30
326;DHT22;150;52.352;14.058;2023-11-21T07:07:49;5.90;48.20
326;DHT22;150;52.352;14.058;2023-11-21T07:10:55;5.90;48.10
326;DHT22;150;52.352;14.058;2023-11-21T07:13:37;6.00;47.80
326;DHT22;150;52.352;14.058;2023-11-21T08:01:18;6.50;46.30
326;DHT22;150;52.352;14.058;2023-11-21T08:03:45;6.30;46.70
326;DHT22;150;52.352;14.058;2023-11-21T08:06:12;6.40;46.80
326;DHT22;150;52.352;14.058;2023-11-21T08:08:39;6.30;46.80
326;DHT22;150;52.352;14.058;2023-11-21T08:11:05;6.30;46.70
326;DHT22;150;52.352;14.058;2023-11-21T08:13:33;6.30;47.40
326;DHT22;150;52.352;14.058;2023-11-21T08:16:00;6.40;49.00
326;DHT22;150;52.352;14.058;2023-11-21T08:18:31;6.40;47.70
326;DHT22;150;52.352;14.058;2023-11-21T08:20:57;6.50;47.60
326;DHT22;150;52.352;14.058;2023-11-21T08:23:24;6.50;47.20
326;DHT22;150;52.352;14.058;2023-11-21T08:25:52;6.50;46.30
326;DHT22;150;52.352;14.058;2023-11-21T08:28:19;6.50;47.50
326;DHT22;150;52.352;14.058;2023-11-21T08:30:48;6.60;47.50
326;DHT22;150;52.352;14.058;2023-11-21T08:33:15;6.40;47.10
326;DHT22;150;52.352;14.058;2023-11-21T08:35:43;6.40;48.00
326;DHT22;150;52.352;14.058;2023-11-21T08:38:11;6.40;47.60
326;DHT22;150;52.352;14.058;2023-11-21T08:40:38;6.50;48.70
326;DHT22;150;52.352;14.058;2023-11-21T08:43:05;6.60;48.50
326;DHT22;150;52.352;14.058;2023-11-21T08:45:32;6.50;47.20
326;DHT22;150;52.352;14.058;2023-11-21T08:47:59;6.50;47.70
326;DHT22;150;52.352;14.058;2023-11-21T08:50:26;6.60;48.60
326;DHT22;150;52.352;14.058;2023-11-21T08:52:54;6.70;47.90
326;DHT22;150;52.352;14.058;2023-11-21T08:55:21;6.60;47.00
326;DHT22;150;52.352;14.058;2023-11-21T08:57:48;6.60;46.90
326;DHT22;150;52.352;14.058;2023-11-21T09:00:15;6.70;47.50
326;DHT22;150;52.352;14.058;2023-11-21T09:02:42;6.80;47.90
326;DHT22;150;52.352;14.058;2023-11-21T09:05:10;6.90;47.90
326;DHT22;150;52.352;14.058;2023-11-21T09:07:38;7.00;47.10
326;DHT22;150;52.352;14.058;2023-11-21T09:10:07;6.90;45.90
326;DHT22;150;52.352;14.058;2023-11-21T09:12:34;6.90;45.60
326;DHT22;150;52.352;14.058;2023-11-21T09:15:03;6.60;46.10
326;DHT22;150;52.352;14.058;2023-11-21T09:17:30;6.70;47.00
326;DHT22;150;52.352;14.058;2023-11-21T09:19:57;6.80;46.70
326;DHT22;150;52.352;14.058;2023-11-21T09:22:23;6.90;46.00
326;DHT22;150;52.352;14.058;2023-11-21T09:24:50;6.80;45.70
326;DHT22;150;52.352;14.058;2023-11-21T09:27:19;6.60;45.30
326;DHT22;150;52.352;14.058;2023-11-21T09:29:47;6.40;46.80
326;DHT22;150;52.352;14.058;2023-11-21T09:32:14;6.40;46.60
326;DHT22;150;52.352;14.058;2023-11-21T09:34:44;6.30;47.00
326;DHT22;150;52.352;14.058;2023-11-21T09:37:11;6.40;47.60
326;DHT22;150;52.352;14.058;2023-11-21T09:39:37;6.50;47.80
326;DHT22;150;52.352;14.058;2023-11-21T09:42:10;6.60;47.80
326;DHT22;150;52.352;14.058;2023-11-21T09:44:44;6.70;47.20
326;DHT22;150;52.352;14.058;2023-11-21T09:47:15;6.60;47.60
326;DHT22;150;52.352;14.058;2023-11-21T09:49:43;6.60;48.10
326;DHT22;150;52.352;14.058;2023-11-21T09:52:18;6.50;48.70
326;DHT22;150;52.352;14.058;2023-11-21T09:54:46;6.40;48.10
326;DHT22;150;52.352;14.058;2023-11-21T09:57:13;6.30;48.90
326;DHT22;150;52.352;14.058;2023-11-21T09:59:43;6.20;49.30
326;DHT22;150;52.352;14.058;2023-11-21T10:02:11;6.00;50.00
326;DHT22;150;52.352;14.058;2023-11-21T10:04:39;5.90;50.90
326;DHT22;150;52.352;14.058;2023-11-21T10:07:06;5.50;50.60
326;DHT22;150;52.352;14.058;2023-11-21T10:09:35;5.40;52.30
326;DHT22;150;52.352;14.058;2023-11-21T10:12:04;5.30;52.90
326;DHT22;150;52.352;14.058;2023-11-21T10:14:34;5.30;53.70
326;DHT22;150;52.352;14.058;2023-11-21T10:17:03;5.40;52.50
326;DHT22;150;52.352;14.058;2023-11-21T10:19:31;5.50;52.00
326;DHT22;150;52.352;14.058;2023-11-21T10:21:59;5.50;50.60
326;DHT22;150;52.352;14.058;2023-11-21T10:24:27;5.50;50.60
326;DHT22;150;52.352;14.058;2023-11-21T10:26:54;5.50;50.50
326;DHT22;150;52.352;14.058;2023-11-21T10:29:21;5.50;50.60
326;DHT22;150;52.352;14.058;2023-11-21T10:31:49;5.60;50.20
326;DHT22;150;52.352;14.058;2023-11-21T10:34:19;5.50;49.80
326;DHT22;150;52.352;14.058;2023-11-21T10:36:46;5.50;50.60
326;DHT22;150;52.352;14.058;2023-11-21T10:39:16;5.50;50.60
326;DHT22;150;52.352;14.058;2023-11-21T10:41:44;5.60;50.60
326;DHT22;150;52.352;14.058;2023-11-21T10:44:13;5.60;49.60
326;DHT22;150;52.352;14.058;2023-11-21T10:46:45;5.60;49.00
326;DHT22;150;52.352;14.058;2023-11-21T10:49:18;5.70;48.80
326;DHT22;150;52.352;14.058;2023-11-21T10:51:45;5.70;48.90
326;DHT22;150;52.352;14.058;2023-11-21T10:54:17;5.80;48.00
326;DHT22;150;52.352;14.058;2023-11-21T10:56:45;5.80;46.90
326;DHT22;150;52.352;14.058;2023-11-21T10:59:13;5.80;47.20
326;DHT22;150;52.352;14.058;2023-11-21T11:01:40;5.80;46.80
326;DHT22;150;52.352;14.058;2023-11-21T11:04:08;5.80;47.30
326;DHT22;150;52.352;14.058;2023-11-21T11:06:42;5.80;46.80
326;DHT22;150;52.352;14.058;2023-11-21T11:09:10;5.80;47.00
326;DHT22;150;52.352;14.058;2023-11-21T11:11:39;6.00;47.50
326;DHT22;150;52.352;14.058;2023-11-21T11:14:08;6.10;47.20
326;DHT22;150;52.352;14.058;2023-11-21T11:16:36;6.10;44.60
326;DHT22;150;52.352;14.058;2023-11-21T11:19:05;5.90;45.00
326;DHT22;150;52.352;14.058;2023-11-21T11:21:39;6.00;45.10
326;DHT22;150;52.352;14.058;2023-11-21T11:24:27;6.10;45.00
326;DHT22;150;52.352;14.058;2023-11-21T11:27:04;6.10;44.60
326;DHT22;150;52.352;14.058;2023-11-21T11:29:40;6.10;44.10
326;DHT22;150;52.352;14.058;2023-11-21T11:32:16;6.20;44.30
326;DHT22;150;52.352;14.058;2023-11-21T11:34:48;6.20;44.10
326;DHT22;150;52.352;14.058;2023-11-21T11:37:27;6.20;44.10
326;DHT22;150;52.352;14.058;2023-11-21T11:39:59;5.90;45.30
326;DHT22;150;52.352;14.058;2023-11-21T11:42:28;5.90;46.30
326;DHT22;150;52.352;14.058;2023-11-21T11:44:56;5.90;45.80
326;DHT22;150;52.352;14.058;2023-11-21T11:47:28;5.90;45.90
326;DHT22;150;52.352;14.058;2023-11-21T11:50:03;5.70;47.20
326;DHT22;150;52.352;14.058;2023-11-21T11:52:40;5.50;47.90
326;DHT22;150;52.352;14.058;2023-11-21T11:55:12;5.40;48.50
326;DHT22;150;52.352;14.058;2023-11-21T11:57:41;5.20;49.00
326;DHT22;150;52.352;14.058;2023-11-21T12:00:13;5.00;50.90
326;DHT22;150;52.352;14.058;2023-11-21T12:02:42;5.00;51.60
326;DHT22;150;52.352;14.058;2023-11-21T12:05:10;4.90;51.30
326;DHT22;150;52.352;14.058;2023-11-21T12:07:46;5.00;50.80
326;DHT22;150;52.352;14.058;2023-11-21T12:10:16;5.00;51.20
326;DHT22;150;52.352;14.058;2023-11-21T12:12:44;5.10;51.80
326;DHT22;150;52.352;14.058;2023-11-21T12:15:12;5.10;51.50
326;DHT22;150;52.352;14.058;2023-11-21T12:17:39;5.10;51.10
326;DHT22;150;52.352;14.058;2023-11-21T12:20:07;5.10;50.80
326;DHT22;150;52.352;14.058;2023-11-21T12:22:44;5.10;51.20
326;DHT22;150;52.352;14.058;2023-11-21T12:25:18;5.40;51.40
326;DHT22;150;52.352;14.058;2023-11-21T12:27:46;5.40;49.10
326;DHT22;150;52.352;14.058;2023-11-21T12:30:15;5.40;49.00
326;DHT22;150;52.352;14.058;2023-11-21T12:32:43;5.50;48.60
326;DHT22;150;52.352;14.058;2023-11-21T12:35:12;5.50;48.70
326;DHT22;150;52.352;14.058;2023-11-21T12:37:40;5.60;47.30
326;DHT22;150;52.352;14.058;2023-11-21T12:40:09;5.60;46.90
326;DHT22;150;52.352;14.058;2023-11-21T12:42:39;5.80;46.90
326;DHT22;150;52.352;14.058;2023-11-21T12:45:08;5.70;46.40
326;DHT22;150;52.352;14.058;2023-11-21T12:47:40;5.80;45.70
326;DHT22;150;52.352;14.058;2023-11-21T12:50:08;5.70;45.00
326;DHT22;150;52.352;14.058;2023-11-21T12:52:43;5.80;45.70
326;DHT22;150;52.352;14.058;2023-11-21T12:55:14;5.70;45.60
326;DHT22;150;52.352;14.058;2023-11-21T12:57:44;5.70;45.60
326;DHT22;150;52.352;14.058;2023-11-21T13:00:12;5.70;46.10
326;DHT22;150;52.352;14.058;2023-11-21T13:02:51;5.60;46.10
326;DHT22;150;52.352;14.058;2023-11-21T13:05:24;5.70;47.00
326;DHT22;150;52.352;14.058;2023-11-21T13:07:52;5.70;47.10
326;DHT22;150;52.352;14.058;2023-11-21T13:10:22;5.70;47.30
326;DHT22;150;52.352;14.058;2023-11-21T13:12:53;5.70;46.80
326;DHT22;150;52.352;14.058;2023-11-21T13:15:20;5.60;46.80
326;DHT22;150;52.352;14.058;2023-11-21T13:17:47;5.60;47.40
326;DHT22;150;52.352;14.058;2023-11-21T13:20:15;5.50;47.70
326;DHT22;150;52.352;14.058;2023-11-21T13:22:47;5.50;47.90
326;DHT22;150;52.352;14.058;2023-11-21T13:25:17;5.50;48.10
326;DHT22;150;52.352;14.058;2023-11-21T13:27:45;5.40;48.70
326;DHT22;150;52.352;14.058;2023-11-21T13:30:14;5.40;49.10
326;DHT22;150;52.352;14.058;2023-11-21T13:32:43;5.30;49.50
326;DHT22;150;52.352;14.058;2023-11-21T13:35:11;5.40;50.20
326;DHT22;150;52.352;14.058;2023-11-21T13:37:51;5.40;48.60
326;DHT22;150;52.352;14.058;2023-11-21T13:40:22;5.30;48.70
326;DHT22;150;52.352;14.058;2023-11-21T13:42:52;5.10;49.70
326;DHT22;150;52.352;14.058;2023-11-21T13:45:26;5.20;50.30
326;DHT22;150;52.352;14.058;2023-11-21T13:47:54;5.30;49.50
326;DHT22;150;52.352;14.058;2023-11-21T13:50:23;5.10;50.20
326;DHT22;150;52.352;14.058;2023-11-21T13:52:55;5.10;50.60
326;DHT22;150;52.352;14.058;2023-11-21T13:55:23;5.20;50.30
326;DHT22;150;52.352;14.058;2023-11-21T13:57:51;5.30;50.40
326;DHT22;150;52.352;14.058;2023-11-21T17:25:53;4.30;41.90
326;DHT22;150;52.352;14.058;2023-11-21T17:28:41;4.10;41.70
326;DHT22;150;52.352;14.058;2023-11-21T17:31:15;4.20;42.90
326;DHT22;150;52.352;14.058;2023-11-21T17:33:49;4.20;40.90
326;DHT22;150;52.352;14.058;2023-11-21T17:36:19;4.10;40.90
326;DHT22;150;52.352;14.058;2023-11-21T17:38:51;4.10;41.40
326;DHT22;150;52.352;14.058;2023-11-21T17:41:29;4.10;40.50
326;DHT22;150;52.352;14.058;2023-11-21T17:44:19;4.10;40.70
326;DHT22;150;52.352;14.058;2023-11-21T17:46:58;4.10;40.90
326;DHT22;150;52.352;14.058;2023-11-21T17:49:56;4.20;41.10
326;DHT22;150;52.352;14.058;2023-11-21T17:52:40;4.20;40.30
326;DHT22;150;52.352;14.058;2023-11-21T17:58:52;4.20;39.70
326;DHT22;150;52.352;14.058;2023-11-21T18:05:01;4.40;39.40
326;DHT22;150;52.352;14.058;2023-11-21T18:22:31;4.60;38.10
326;DHT22;150;52.352;14.058;2023-11-21T19:06:12;4.10;35.70
326;DHT22;150;52.352;14.058;2023-11-21T19:14:38;4.00;35.40
326;DHT22;150;52.352;14.058;2023-11-21T20:02:23;3.90;36.80
326;DHT22;150;52.352;14.058;2023-11-21T20:04:51;3.80;37.00
326;DHT22;150;52.352;14.058;2023-11-21T20:07:18;3.90;37.60
326;DHT22;150;52.352;14.058;2023-11-21T20:09:46;3.90;37.60
326;DHT22;150;52.352;14.058;2023-11-21T20:12:14;4.00;37.20
326;DHT22;150;52.352;14.058;2023-11-21T20:14:41;4.00;37.90
326;DHT22;150;52.352;14.058;2023-11-21T20:17:08;4.00;36.70
326;DHT22;150;52.352;14.058;2023-11-21T20:19:36;4.00;36.30
326;DHT22;150;52.352;14.058;2023-11-21T20:22:03;4.00;37.10
326;DHT22;150;52.352;14.058;2023-11-21T20:24:29;4.00;36.60
326;DHT22;150;52.352;14.058;2023-11-21T20:26:57;3.90;36.50
326;DHT22;150;52.352;14.058;2023-11-21T20:29:25;3.90;36.80
326;DHT22;150;52.352;14.058;2023-11-21T20:31:51;3.90;36.90
326;DHT22;150;52.352;14.058;2023-11-21T20:34:18;3.90;36.70
326;DHT22;150;52.352;14.058;2023-11-21T20:36:47;3.90;37.00
326;DHT22;150;52.352;14.058;2023-11-21T20:39:15;3.90;36.40
326;DHT22;150;52.352;14.058;2023-11-21T20:41:42;3.90;36.20
326;DHT22;150;52.352;14.058;2023-11-21T20:44:09;3.80;36.30
326;DHT22;150;52.352;14.058;2023-11-21T20:46:39;3.70;36.20
326;DHT22;150;52.352;14.058;2023-11-21T20:49:07;3.80;36.40
326;DHT22;150;52.352;14.058;2023-11-21T20:51:34;3.80;36.10
326;DHT22;150;52.352;14.058;2023-11-21T20:54:02;3.80;36.00
326;DHT22;150;52.352;14.058;2023-11-21T20:56:29;3.80;36.30
326;DHT22;150;52.352;14.058;2023-11-21T20:58:57;3.90;36.30
326;DHT22;150;52.352;14.058;2023-11-21T21:01:26;3.90;36.10
326;DHT22;150;52.352;14.058;2023-11-21T21:03:52;4.00;35.40
326;DHT22;150;52.352;14.058;2023-11-21T21:06:19;4.00;35.20
326;DHT22;150;52.352;14.058;2023-11-21T21:08:46;4.00;35.30
326;DHT22;150;52.352;14.058;2023-11-21T21:11:18;3.70;35.90
326;DHT22;150;52.352;14.058;2023-11-21T21:13:45;3.70;36.50
326;DHT22;150;52.352;14.058;2023-11-21T21:16:12;3.80;37.20
326;DHT22;150;52.352;14.058;2023-11-21T21:18:38;3.80;36.90
326;DHT22;150;52.352;14.058;2023-11-21T21:21:05;3.70;37.30
326;DHT22;150;52.352;14.058;2023-11-21T21:23:32;3.70;37.30
326;DHT22;150;52.352;14.058;2023-11-21T21:25:59;3.60;37.40
326;DHT22;150;52.352;14.058;2023-11-21T21:28:27;3.70;37.10
326;DHT22;150;52.352;14.058;2023-11-21T21:30:54;3.60;36.40
326;DHT22;150;52.352;14.058;2023-11-21T21:33:22;3.60;36.70
326;DHT22;150;52.352;14.058;2023-11-21T21:35:49;3.60;36.90
326;DHT22;150;52.352;14.058;2023-11-21T21:38:15;3.70;37.00
326;DHT22;150;52.352;14.058;2023-11-21T21:40:42;3.70;37.50
326;DHT22;150;52.352;14.058;2023-11-21T21:43:09;3.80;36.80
326;DHT22;150;52.352;14.058;2023-11-21T21:45:37;3.70;36.00
326;DHT22;150;52.352;14.058;2023-11-21T21:48:04;3.50;35.80
326;DHT22;150;52.352;14.058;2023-11-21T21:50:31;3.40;35.80
326;DHT22;150;52.352;14.058;2023-11-21T21:52:58;3.40;36.30
326;DHT22;150;52.352;14.058;2023-11-21T21:55:25;3.30;35.80
326;DHT22;150;52.352;14.058;2023-11-21T21:57:52;3.30;35.90
326;DHT22;150;52.352;14.058;2023-11-21T22:00:19;3.40;35.70
326;DHT22;150;52.352;14.058;2023-11-21T22:02:47;3.30;35.60
326;DHT22;150;52.352;14.058;2023-11-21T22:05:14;3.40;35.50
326;DHT22;150;52.352;14.058;2023-11-21T22:07:40;3.40;35.10
326;DHT22;150;52.352;14.058;2023-11-21T22:10:08;3.40;35.10
326;DHT22;150;52.352;14.058;2023-11-21T22:12:34;3.40;34.80
326;DHT22;150;52.352;14.058;2023-11-21T22:15:01;3.50;34.40
326;DHT22;150;52.352;14.058;2023-11-21T22:17:29;3.40;34.70
326;DHT22;150;52.352;14.058;2023-11-21T22:19:58;3.40;34.90
326;DHT22;150;52.352;14.058;2023-11-21T22:22:25;3.40;34.60
326;DHT22;150;52.352;14.058;2023-11-21T22:24:52;3.40;34.80
326;DHT22;150;52.352;14.058;2023-11-21T22:27:19;3.40;35.10
326;DHT22;150;52.352;14.058;2023-11-21T22:29:45;3.40;34.70
326;DHT22;150;52.352;14.058;2023-11-21T22:32:12;3.40;34.30
326;DHT22;150;52.352;14.058;2023-11-21T22:34:39;3.40;34.60
326;DHT22;150;52.352;14.058;2023-11-21T22:37:07;3.40;35.10
326;DHT22;150;52.352;14.058;2023-11-21T22:39:34;3.40;34.20
326;DHT22;150;52.352;14.058;2023-11-21T22:42:01;3.40;34.40
326;DHT22;150;52.352;14.058;2023-11-21T22:44:29;3.30;34.00
326;DHT22;150;52.352;14.058;2023-11-21T22:46:55;3.30;34.60
326;DHT22;150;52.352;14.058;2023-11-21T22:49:25;3.40;34.40
326;DHT22;150;52.352;14.058;2023-11-21T22:51:52;3.40;33.90
326;DHT22;150;52.352;14.058;2023-11-21T22:54:20;3.40;33.90
326;DHT22;150;52.352;14.058;2023-11-21T22:56:46;3.40;33.60
326;DHT22;150;52.352;14.058;2023-11-21T22:59:16;3.40;33.70
326;DHT22;150;52.352;14.058;2023-11-21T23:01:42;3.40;33.60
326;DHT22;150;52.352;14.058;2023-11-21T23:04:10;3.40;33.90
326;DHT22;150;52.352;14.058;2023-11-21T23:06:37;3.40;34.00
326;DHT22;150;52.352;14.058;2023-11-21T23:09:04;3.40;34.60
326;DHT22;150;52.352;14.058;2023-11-21T23:11:32;3.40;34.00
326;DHT22;150;52.352;14.058;2023-11-21T23:13:58;3.30;33.90
326;DHT22;150;52.352;14.058;2023-11-21T23:16:25;3.30;34.60
326;DHT22;150;52.352;14.058;2023-11-21T23:18:51;3.20;34.60
326;DHT22;150;52.352;14.058;2023-11-21T23:21:19;3.20;35.10
326;DHT22;150;52.352;14.058;2023-11-21T23:23:46;3.20;35.40
326;DHT22;150;52.352;14.058;2023-11-21T23:26:14;3.20;34.90
326;DHT22;150;52.352;14.058;2023-11-21T23:28:42;3.30;35.00
326;DHT22;150;52.352;14.058;2023-11-21T23:31:09;3.30;34.00
326;DHT22;150;52.352;14.058;2023-11-21T23:33:36;3.20;34.10
326;DHT22;150;52.352;14.058;2023-11-21T23:36:03;3.20;34.30
326;DHT22;150;52.352;14.058;2023-11-21T23:38:29;3.20;34.30
326;DHT22;150;52.352;14.058;2023-11-21T23:40:56;3.20;34.60
326;DHT22;150;52.352;14.058;2023-11-21T23:43:23;3.30;33.90
326;DHT22;150;52.352;14.058;2023-11-21T23:45:53;3.30;34.00
326;DHT22;150;52.352;14.058;2023-11-21T23:48:19;3.30;33.20
326;DHT22;150;52.352;14.058;2023-11-21T23:50:46;3.30;34.10
326;DHT22;150;52.352;14.058;2023-11-21T23:53:13;3.30;34.00
326;DHT22;150;52.352;14.058;2023-11-21T23:55:40;3.40;33.90
326;DHT22;150;52.352;14.058;2023-11-21T23:58:06;3.40;33.30
